Time;durP1;ratioP1;P1;durP2;ratioP2;P2;SDS_P1;SDS_P2;PMS_P1;PMS_P2;Temp;Humidity;BMP_temperature;BMP_pressure;BME280_temperature;BME280_humidity;BME280_pressure;Samples;Min_cycle;Max_cycle;Signal;HPM_P1;HPM_P2
2021/07/16 00:01:25;;;;;;;12.40;8.40;;;;;;;22.61;69.07;99327.28;1736917;81;21047;-69
2021/07/16 00:03:51;;;;;;;10.15;8.43;;;;;;;22.64;69.01;99327.94;1737798;82;21003;-69
2021/07/16 00:06:18;;;;;;;12.23;8.65;;;;;;;22.61;69.04;99334.21;1732183;81;21039;-69
2021/07/16 00:08:45;;;;;;;11.60;7.97;;;;;;;22.54;69.20;99326.53;1718869;82;21032;-69
2021/07/16 00:11:13;;;;;;;10.40;8.43;;;;;;;22.51;69.23;99326.45;1717076;82;21087;-69
2021/07/16 00:13:40;;;;;;;14.68;8.08;;;;;;;22.51;69.33;99320.91;1713631;82;21098;-69
2021/07/16 00:16:08;;;;;;;8.95;7.90;;;;;;;22.51;69.35;99323.67;1721146;82;21039;-69
2021/07/16 00:18:34;;;;;;;11.95;8.30;;;;;;;22.48;69.47;99325.21;1701521;82;21050;-69
2021/07/16 00:21:02;;;;;;;10.53;8.00;;;;;;;22.40;69.68;99326.20;1691405;82;21098;-69
2021/07/16 00:23:29;;;;;;;9.15;7.83;;;;;;;22.33;69.83;99319.91;1727436;82;21492;-69
2021/07/16 00:25:55;;;;;;;9.00;7.95;;;;;;;22.30;69.89;99319.82;1736282;81;21047;-69
2021/07/16 00:28:22;;;;;;;8.33;7.40;;;;;;;22.27;69.94;99326.09;1736298;82;20968;-69
2021/07/16 00:30:50;;;;;;;11.88;8.08;;;;;;;22.25;70.04;99326.44;1721172;82;21598;-69
2021/07/16 00:33:16;;;;;;;11.80;8.45;;;;;;;22.23;70.20;99327.39;1716097;83;21019;-69
2021/07/16 00:35:43;;;;;;;12.73;8.15;;;;;;;22.18;70.35;99323.48;1717573;82;21067;-69
2021/07/16 00:38:09;;;;;;;11.22;7.60;;;;;;;22.14;70.45;99324.58;1729041;81;21580;-69
2021/07/16 00:40:36;;;;;;;10.35;7.67;;;;;;;22.14;70.51;99324.58;1731065;82;21040;-69
2021/07/16 00:43:03;;;;;;;8.48;7.58;;;;;;;22.14;70.66;99321.20;1732395;81;21046;-69
2021/07/16 00:45:29;;;;;;;11.25;7.78;;;;;;;22.14;70.86;99328.74;1716168;82;21083;-69
2021/07/16 00:47:56;;;;;;;10.00;8.28;;;;;;;22.14;70.97;99328.14;1716397;82;21082;-69
2021/07/16 00:50:29;;;;;;;13.40;8.15;;;;;;;22.10;71.13;99325.07;1709325;82;21103;-69
2021/07/16 00:52:56;;;;;;;10.08;7.72;;;;;;;22.13;71.14;99325.73;1723711;82;20986;-69
2021/07/16 00:55:23;;;;;;;9.88;7.92;;;;;;;22.19;71.08;99321.52;1720139;82;21059;-69
2021/07/16 00:57:50;;;;;;;10.28;8.48;;;;;;;22.23;70.97;99323.80;1723907;82;21509;-70
2021/07/16 01:00:16;;;;;;;10.72;7.97;;;;;;;22.24;70.92;99328.20;1724606;82;21043;-69
2021/07/16 01:02:43;;;;;;;11.80;8.50;;;;;;;22.20;70.98;99323.95;1729820;82;21062;-69
2021/07/16 01:05:12;;;;;;;11.22;8.58;;;;;;;22.23;70.93;99326.58;1740352;81;20989;-69
2021/07/16 01:07:38;;;;;;;11.78;8.08;;;;;;;22.27;70.82;99318.58;1744626;82;20972;-69
2021/07/16 01:10:06;;;;;;;13.22;7.85;;;;;;;22.30;70.66;99317.86;1742240;82;21030;-69
2021/07/16 01:12:36;;;;;;;9.78;7.83;;;;;;;22.31;70.58;99325.59;1734138;82;21034;-69
2021/07/16 01:15:04;;;;;;;10.90;7.80;;;;;;;22.25;70.70;99323.66;1707621;83;21043;-69
2021/07/16 01:17:32;;;;;;;10.43;7.03;;;;;;;22.22;70.59;99321.61;1715601;82;20999;-69
2021/07/16 01:20:07;;;;;;;11.33;8.48;;;;;;;22.24;70.57;99317.91;1664252;83;21521;-69
2021/07/16 01:22:36;;;;;;;12.20;7.83;;;;;;;22.25;70.53;99312.57;1689878;83;21474;-69
2021/07/16 01:25:11;;;;;;;10.00;8.20;;;;;;;22.22;70.54;99311.09;1696374;83;21057;-69
2021/07/16 01:27:39;;;;;;;11.38;8.20;;;;;;;22.18;70.74;99312.98;1678066;85;21014;-69
2021/07/16 01:30:09;;;;;;;12.30;8.68;;;;;;;22.16;70.92;99309.20;1677309;84;21561;-69
2021/07/16 01:32:37;;;;;;;10.55;7.95;;;;;;;22.17;70.78;99308.62;1672004;85;21017;-69
2021/07/16 01:35:05;;;;;;;8.68;7.65;;;;;;;22.16;70.70;99303.65;1685756;83;21094;-69
2021/07/16 01:37:32;;;;;;;12.13;8.60;;;;;;;22.14;70.71;99296.86;1659956;85;21023;-69
2021/07/16 01:39:59;;;;;;;13.40;8.60;;;;;;;22.08;70.67;99301.86;1640124;85;21545;-69
2021/07/16 01:42:37;;;;;;;9.68;7.72;;;;;;;22.07;70.75;99298.86;1629740;87;21038;-69
2021/07/16 01:45:08;;;;;;;9.15;7.60;;;;;;;22.09;70.63;99288.23;1642868;86;21051;-70
2021/07/16 01:47:36;;;;;;;11.60;8.43;;;;;;;22.12;70.57;99289.47;1641551;86;21025;-67
2021/07/16 01:50:05;;;;;;;13.00;8.50;;;;;;;22.10;70.60;99291.81;1648032;87;21051;-68
2021/07/16 01:52:32;;;;;;;11.43;8.60;;;;;;;22.07;70.69;99295.30;1641614;85;21046;-68
2021/07/16 01:54:59;;;;;;;10.80;8.15;;;;;;;22.07;70.73;99282.22;1641436;85;21659;-68
2021/07/16 01:57:25;;;;;;;10.72;8.00;;;;;;;22.09;70.58;99282.69;1647125;85;21035;-68
2021/07/16 01:59:51;;;;;;;10.78;8.08;;;;;;;22.11;70.56;99278.96;1644800;85;21034;-68
2021/07/16 02:02:18;;;;;;;11.45;8.40;;;;;;;22.08;70.60;99276.91;1651106;86;21164;-68
2021/07/16 02:04:44;;;;;;;10.75;7.85;;;;;;;22.03;70.90;99275.81;1629856;88;21675;-68
2021/07/16 02:07:11;;;;;;;12.55;8.23;;;;;;;21.99;70.86;99270.77;1630176;87;21134;-69
2021/07/16 02:09:39;;;;;;;9.25;7.92;;;;;;;21.97;70.94;99268.91;1641723;85;21141;-68
2021/07/16 02:12:06;;;;;;;14.23;8.20;;;;;;;21.98;70.88;99268.34;1663159;86;21080;-68
2021/07/16 02:14:34;;;;;;;13.90;8.85;;;;;;;21.93;71.17;99263.86;1659164;84;21062;-68
2021/07/16 02:17:01;;;;;;;11.40;8.20;;;;;;;21.86;71.20;99265.64;1684915;84;21109;-68
2021/07/16 02:19:28;;;;;;;12.33;7.92;;;;;;;21.82;71.26;99266.94;1648267;85;21038;-68
2021/07/16 02:21:54;;;;;;;10.18;7.97;;;;;;;21.86;71.05;99269.80;1660190;85;21659;-68
2021/07/16 02:24:21;;;;;;;11.53;7.87;;;;;;;21.88;70.89;99263.31;1683568;85;21047;-68
2021/07/16 02:26:47;;;;;;;12.25;9.00;;;;;;;21.88;70.80;99264.11;1673540;84;21026;-68
2021/07/16 02:29:14;;;;;;;11.60;8.03;;;;;;;21.83;70.85;99256.06;1678326;85;21003;-68
2021/07/16 02:31:40;;;;;;;8.48;7.47;;;;;;;21.82;70.85;99256.64;1661519;84;21054;-68
2021/07/16 02:34:07;;;;;;;12.53;8.00;;;;;;;21.87;70.76;99257.53;1675309;85;21102;-68
2021/07/16 02:36:33;;;;;;;9.65;8.33;;;;;;;21.90;70.89;99260.42;1692834;84;21093;-68
2021/07/16 02:39:00;;;;;;;13.22;8.70;;;;;;;21.91;71.00;99262.05;1696547;82;21105;-68
2021/07/16 02:41:26;;;;;;;9.80;8.08;;;;;;;21.90;71.09;99260.42;1724256;82;21074;-68
2021/07/16 02:43:52;;;;;;;12.07;8.03;;;;;;;21.92;71.13;99258.11;1709631;83;21046;-68
2021/07/16 02:46:19;;;;;;;10.88;8.18;;;;;;;21.96;70.89;99263.17;1717622;82;21976;-68
2021/07/16 02:48:47;;;;;;;12.35;8.73;;;;;;;22.03;70.75;99258.38;1727735;82;21030;-68
2021/07/16 02:51:14;;;;;;;11.78;8.23;;;;;;;22.06;70.64;99254.88;1732571;82;21062;-69
2021/07/16 02:53:40;;;;;;;10.43;7.87;;;;;;;22.07;70.51;99253.73;1729075;82;21082;-68
2021/07/16 02:56:08;;;;;;;12.53;8.15;;;;;;;22.08;70.22;99251.97;1712843;82;21079;-69
2021/07/16 02:58:34;;;;;;;8.28;6.97;;;;;;;22.13;70.00;99248.93;1708601;83;21502;-68
2021/07/16 03:01:01;;;;;;;11.63;7.72;;;;;;;22.17;69.95;99247.63;1742236;81;21082;-68
2021/07/16 03:03:29;;;;;;;10.28;8.50;;;;;;;22.13;69.86;99244.77;1719267;82;21165;-69
2021/07/16 03:05:55;;;;;;;13.15;7.65;;;;;;;22.13;70.06;99254.47;1720900;82;21134;-68
2021/07/16 03:08:22;;;;;;;10.08;7.35;;;;;;;22.15;70.02;99248.55;1719164;82;20928;-69
2021/07/16 03:10:49;;;;;;;11.30;7.45;;;;;;;22.22;69.70;99257.84;1725787;82;21533;-68
2021/07/16 03:13:18;;;;;;;10.03;7.10;;;;;;;22.26;69.59;99258.73;1732549;82;21278;-67
2021/07/16 03:15:45;;;;;;;12.85;8.13;;;;;;;22.31;69.50;99261.83;1698383;83;21503;-68
2021/07/16 03:18:13;;;;;;;12.30;8.20;;;;;;;22.35;69.57;99260.52;1716255;82;21482;-70
2021/07/16 03:20:44;;;;;;;12.13;7.45;;;;;;;22.46;69.48;99260.19;1721933;82;21022;-68
2021/07/16 03:23:11;;;;;;;12.20;7.25;;;;;;;22.60;69.48;99274.38;1735793;82;21545;-69
2021/07/16 03:25:38;;;;;;;10.50;8.08;;;;;;;22.76;69.40;99268.20;1705657;82;21083;-69
2021/07/16 03:28:05;;;;;;;13.83;8.78;;;;;;;22.91;69.26;99274.28;1741390;82;20999;-69
2021/07/16 03:30:32;;;;;;;12.78;8.30;;;;;;;23.04;69.44;99274.35;1712864;82;21398;-69
2021/07/16 03:32:59;;;;;;;10.23;7.58;;;;;;;23.22;69.63;99281.65;1730755;82;21458;-69
2021/07/16 03:35:26;;;;;;;11.45;7.70;;;;;;;23.39;68.74;99282.58;1739851;82;21055;-69
2021/07/16 03:37:53;;;;;;;12.07;7.72;;;;;;;23.49;67.67;99289.56;1742992;82;20979;-69
2021/07/16 03:40:23;;;;;;;9.43;7.15;;;;;;;23.52;67.15;99283.27;1739113;81;21558;-69
2021/07/16 03:42:50;;;;;;;13.05;7.15;;;;;;;23.57;67.27;99285.14;1737214;82;21443;-69
2021/07/16 03:45:18;;;;;;;11.95;6.87;;;;;;;23.60;67.38;99291.34;1737992;81;21019;-69
2021/07/16 03:47:46;;;;;;;11.70;7.20;;;;;;;23.67;66.90;99286.50;1738308;82;20972;-69
2021/07/16 03:50:15;;;;;;;11.03;7.50;;;;;;;23.73;66.79;99290.02;1712926;82;21164;-69
2021/07/16 03:52:42;;;;;;;10.08;7.67;;;;;;;23.90;66.80;99293.47;1724248;82;20994;-69
2021/07/16 03:55:10;;;;;;;11.05;7.37;;;;;;;24.13;66.87;99303.42;1724297;82;21046;-69
2021/07/16 03:57:43;;;;;;;9.73;7.42;;;;;;;24.36;66.81;99301.20;1720503;82;21454;-69
2021/07/16 04:00:11;;;;;;;10.53;7.22;;;;;;;24.60;66.37;99293.81;1723316;83;21007;-69
2021/07/16 04:02:37;;;;;;;13.10;7.22;;;;;;;24.78;64.67;99296.27;1730502;82;21458;-69
2021/07/16 04:05:04;;;;;;;12.93;6.87;;;;;;;24.88;64.18;99289.26;1723446;83;21002;-69
2021/07/16 04:07:33;;;;;;;10.68;7.85;;;;;;;24.99;63.57;99295.19;1724584;82;21019;-69
2021/07/16 04:09:59;;;;;;;13.62;7.53;;;;;;;25.02;62.93;99298.61;1731739;82;21425;-68
2021/07/16 04:12:26;;;;;;;17.12;6.80;;;;;;;25.07;62.15;99301.06;1723634;82;21007;-69
2021/07/16 04:14:54;;;;;;;12.93;7.87;;;;;;;25.14;62.89;99308.70;1733234;83;21467;-69
2021/07/16 04:17:25;;;;;;;10.10;6.72;;;;;;;25.25;63.12;99309.64;1736124;83;21045;-69
2021/07/16 04:19:54;;;;;;;13.80;7.22;;;;;;;25.48;62.90;99305.31;1723703;82;21043;-69
2021/07/16 04:22:24;;;;;;;13.18;7.30;;;;;;;25.63;61.88;99305.72;1723423;83;21521;-69
2021/07/16 04:24:52;;;;;;;12.55;7.12;;;;;;;25.64;61.15;99310.92;1722980;83;21125;-69
2021/07/16 04:27:18;;;;;;;9.45;7.37;;;;;;;25.63;61.12;99312.09;1731367;83;21466;-69
2021/07/16 04:29:45;;;;;;;10.53;7.20;;;;;;;25.61;60.89;99310.27;1736088;83;21034;-69
2021/07/16 04:32:13;;;;;;;10.25;7.28;;;;;;;25.61;60.94;99308.09;1725711;81;21074;-69
2021/07/16 04:34:39;;;;;;;11.95;6.80;;;;;;;25.68;61.42;99309.56;1723276;83;21521;-69
2021/07/16 04:37:07;;;;;;;15.80;7.50;;;;;;;25.74;60.99;99306.63;1722804;83;21058;-69
2021/07/16 04:39:35;;;;;;;10.78;7.55;;;;;;;25.83;61.11;99309.09;1718512;83;21047;-69
2021/07/16 04:42:01;;;;;;;12.13;7.67;;;;;;;25.94;61.56;99305.22;1712025;84;21632;-69
2021/07/16 04:44:28;;;;;;;11.25;6.70;;;;;;;26.16;60.20;99309.81;1712411;84;21577;-69
2021/07/16 04:46:56;;;;;;;11.63;7.40;;;;;;;26.36;59.70;99308.98;1711953;84;21118;-69
2021/07/16 04:49:23;;;;;;;11.53;7.37;;;;;;;26.54;59.14;99309.12;1712215;84;21063;-69
2021/07/16 04:51:50;;;;;;;15.25;7.97;;;;;;;26.76;58.41;99309.47;1711858;83;21646;-69
2021/07/16 04:54:16;;;;;;;10.10;7.65;;;;;;;26.89;57.80;99312.16;1703546;83;21569;-69
2021/07/16 04:56:44;;;;;;;10.53;7.22;;;;;;;27.09;57.46;99316.27;1696131;82;21111;-69
2021/07/16 04:59:10;;;;;;;10.72;6.90;;;;;;;27.20;56.96;99318.52;1696759;82;21070;-69
2021/07/16 05:01:37;;;;;;;14.80;7.53;;;;;;;27.28;56.19;99311.56;1673530;84;21019;-69
2021/07/16 05:04:04;;;;;;;12.80;7.45;;;;;;;27.39;56.26;99313.18;1718111;82;21513;-69
2021/07/16 05:06:30;;;;;;;10.15;7.30;;;;;;;27.50;55.83;99322.44;1702297;82;21090;-69
2021/07/16 05:08:57;;;;;;;10.98;7.33;;;;;;;27.62;55.77;99317.09;1719089;82;21004;-69
2021/07/16 05:11:23;;;;;;;8.88;6.72;;;;;;;27.80;56.58;99322.13;1721443;82;21046;-69
2021/07/16 05:13:50;;;;;;;10.45;7.70;;;;;;;28.18;56.42;99320.59;1737664;82;21546;-69
2021/07/16 05:16:18;;;;;;;12.00;7.10;;;;;;;28.39;55.22;99320.58;1737989;81;21075;-69
2021/07/16 05:18:46;;;;;;;10.80;6.60;;;;;;;28.52;54.66;99318.97;1732026;82;20976;-68
2021/07/16 05:21:13;;;;;;;15.13;7.42;;;;;;;28.66;53.92;99321.74;1736120;81;21068;-68
2021/07/16 05:23:41;;;;;;;11.93;7.35;;;;;;;28.70;53.06;99321.77;1712338;83;21014;-68
2021/07/16 05:26:08;;;;;;;11.55;7.03;;;;;;;28.71;52.93;99319.77;1732933;81;21054;-68
2021/07/16 05:28:34;;;;;;;9.80;6.40;;;;;;;28.78;53.17;99312.16;1723292;83;21044;-68
2021/07/16 05:31:01;;;;;;;11.48;7.22;;;;;;;28.95;53.13;99312.70;1716614;82;21047;-69
2021/07/16 05:33:28;;;;;;;9.35;6.65;;;;;;;28.96;51.97;99319.91;1712076;83;21047;-69
2021/07/16 05:35:55;;;;;;;13.85;6.45;;;;;;;28.96;52.18;99322.72;1711845;84;21074;-70
2021/07/16 05:38:22;;;;;;;13.30;6.28;;;;;;;29.10;52.13;99312.86;1712256;84;21035;-69
2021/07/16 05:40:49;;;;;;;8.48;6.47;;;;;;;29.17;51.60;99296.62;1722690;83;21066;-69
2021/07/16 05:43:15;;;;;;;9.43;6.25;;;;;;;29.29;51.56;99303.81;1725492;83;21015;-69
2021/07/16 05:45:42;;;;;;;10.53;6.65;;;;;;;29.37;50.48;99309.59;1725424;83;21134;-69
2021/07/16 05:48:10;;;;;;;9.13;6.75;;;;;;;29.40;50.76;99308.17;1725546;83;21632;-70
2021/07/16 05:50:41;;;;;;;15.03;6.75;;;;;;;29.51;50.89;99312.33;1725321;83;21525;-69
2021/07/16 05:53:07;;;;;;;10.40;5.83;;;;;;;29.65;50.55;99306.63;1725356;83;21015;-69
2021/07/16 05:55:34;;;;;;;12.15;6.10;;;;;;;29.72;50.56;99314.20;1725317;83;21626;-70
2021/07/16 05:58:01;;;;;;;8.50;5.95;;;;;;;29.78;49.31;99311.16;1725183;82;21034;-70
2021/07/16 06:00:28;;;;;;;9.90;6.10;;;;;;;29.80;49.73;99315.73;1698685;83;21580;-68
2021/07/16 06:02:55;;;;;;;10.98;6.33;;;;;;;29.84;49.16;99310.33;1725410;83;21074;-68
2021/07/16 06:05:22;;;;;;;8.83;6.50;;;;;;;30.00;49.72;99312.64;1725226;83;21039;-68
2021/07/16 06:07:48;;;;;;;9.08;5.90;;;;;;;30.19;49.17;99311.27;1725629;83;21035;-69
2021/07/16 06:10:15;;;;;;;11.18;6.25;;;;;;;30.21;48.69;99311.67;1732986;81;21120;-68
2021/07/16 06:12:43;;;;;;;12.28;6.62;;;;;;;30.42;48.34;99319.94;1723230;82;21019;-68
2021/07/16 06:15:10;;;;;;;11.15;6.70;;;;;;;30.59;47.62;99316.17;1723437;82;20971;-66
2021/07/16 06:17:38;;;;;;;11.53;6.67;;;;;;;30.70;46.64;99310.45;1718814;82;21485;-67
2021/07/16 06:20:07;;;;;;;9.33;6.45;;;;;;;30.73;46.56;99312.41;1740765;82;20999;-66
2021/07/16 06:22:34;;;;;;;10.13;6.22;;;;;;;30.90;46.67;99312.83;1731012;83;21023;-68
2021/07/16 06:25:00;;;;;;;9.73;6.12;;;;;;;31.03;46.91;99310.52;1733578;82;21501;-68
2021/07/16 06:27:27;;;;;;;7.80;6.37;;;;;;;31.12;46.17;99307.80;1740279;82;20983;-68
2021/07/16 06:29:53;;;;;;;10.82;6.45;;;;;;;31.13;45.78;99318.63;1730641;82;21525;-68
2021/07/16 06:32:20;;;;;;;8.30;6.35;;;;;;;31.16;45.94;99316.38;1716586;82;21006;-68
2021/07/16 06:34:46;;;;;;;9.48;6.70;;;;;;;31.34;47.52;99317.56;1696177;84;21651;-67
2021/07/16 06:37:13;;;;;;;10.85;6.40;;;;;;;31.48;45.64;99313.16;1695782;84;21109;-67
2021/07/16 06:39:40;;;;;;;9.13;6.53;;;;;;;31.48;45.30;99309.74;1708438;82;21062;-68
2021/07/16 06:42:06;;;;;;;8.85;6.00;;;;;;;31.57;45.99;99316.27;1731377;82;20999;-67
2021/07/16 06:44:33;;;;;;;11.60;6.70;;;;;;;31.64;45.07;99314.77;1713042;83;21007;-67
2021/07/16 06:47:01;;;;;;;9.18;6.67;;;;;;;31.55;45.39;99312.48;1730680;81;21663;-67
2021/07/16 06:49:27;;;;;;;13.85;6.80;;;;;;;31.71;46.03;99313.25;1736589;82;21030;-67
2021/07/16 06:51:55;;;;;;;12.13;6.83;;;;;;;31.93;44.67;99317.97;1739026;82;21629;-68
2021/07/16 06:54:23;;;;;;;11.10;7.08;;;;;;;32.13;44.02;99318.91;1743165;82;20988;-67
2021/07/16 06:56:49;;;;;;;8.98;6.92;;;;;;;32.18;43.37;99314.78;1728963;82;20993;-68
2021/07/16 06:59:16;;;;;;;8.78;6.83;;;;;;;32.29;43.50;99316.81;1740225;81;21050;-69
2021/07/16 07:01:43;;;;;;;11.50;7.22;;;;;;;32.33;43.14;99315.55;1742522;80;21078;-68
2021/07/16 07:04:09;;;;;;;11.30;6.75;;;;;;;32.35;42.81;99311.67;1745633;82;21587;-69
2021/07/16 07:06:35;;;;;;;11.00;6.92;;;;;;;32.40;43.05;99320.25;1745454;81;21031;-68
2021/07/16 07:09:02;;;;;;;12.53;7.55;;;;;;;32.51;42.86;99318.05;1746135;82;21010;-68
2021/07/16 07:11:28;;;;;;;10.95;7.35;;;;;;;32.46;42.93;99317.13;1745823;81;21094;-68
2021/07/16 07:13:57;;;;;;;10.78;7.50;;;;;;;32.42;43.15;99320.00;1745726;82;21011;-68
2021/07/16 07:16:23;;;;;;;12.68;7.37;;;;;;;32.44;43.94;99326.02;1745864;81;21062;-69
2021/07/16 07:18:49;;;;;;;16.82;8.43;;;;;;;32.48;42.83;99320.33;1746149;82;21023;-69
2021/07/16 07:21:15;;;;;;;10.48;7.92;;;;;;;32.52;42.42;99323.88;1745848;81;21042;-68
2021/07/16 07:23:42;;;;;;;10.53;7.92;;;;;;;32.45;42.51;99329.64;1746258;82;21061;-69
2021/07/16 07:26:09;;;;;;;11.12;8.15;;;;;;;32.52;42.73;99330.28;1745827;81;21047;-68
2021/07/16 07:28:36;;;;;;;9.30;7.55;;;;;;;32.63;42.09;99325.13;1746199;82;21031;-68
2021/07/16 07:31:03;;;;;;;16.10;7.85;;;;;;;32.89;42.22;99323.61;1746028;81;21039;-68
2021/07/16 07:33:30;;;;;;;9.80;8.00;;;;;;;33.26;42.23;99328.16;1746152;82;20975;-68
2021/07/16 07:35:56;;;;;;;11.75;7.55;;;;;;;33.60;41.88;99331.25;1746012;81;21016;-68
2021/07/16 07:38:23;;;;;;;10.78;7.97;;;;;;;33.95;42.41;99319.18;1746111;82;21026;-68
2021/07/16 07:40:50;;;;;;;12.23;7.90;;;;;;;34.27;41.24;99329.13;1741067;81;21028;-68
2021/07/16 07:43:18;;;;;;;9.45;7.70;;;;;;;34.38;40.70;99322.59;1737596;82;21011;-68
2021/07/16 07:45:44;;;;;;;10.90;7.87;;;;;;;34.36;39.73;99331.34;1737927;81;21012;-68
2021/07/16 07:48:11;;;;;;;10.80;8.38;;;;;;;34.18;39.43;99334.61;1719048;82;21074;-68
2021/07/16 07:50:37;;;;;;;10.20;7.78;;;;;;;33.99;39.55;99327.76;1737825;81;21086;-68
2021/07/16 07:55:07;;;;;;;11.03;8.28;;;;;;;34.24;39.90;99334.25;1800532;79;23428;-69
2021/07/16 07:57:34;;;;;;;14.98;8.50;;;;;;;34.15;39.44;99332.67;1733522;82;20955;-68
2021/07/16 08:00:00;;;;;;;12.07;8.63;;;;;;;34.22;39.67;99338.76;1736474;82;21058;-69
2021/07/16 08:02:26;;;;;;;13.35;8.15;;;;;;;34.15;39.77;99333.28;1738638;82;20983;-69
2021/07/16 08:04:53;;;;;;;13.45;8.00;;;;;;;34.06;41.09;99340.91;1720333;82;21478;-68
2021/07/16 08:07:19;;;;;;;10.60;8.28;;;;;;;34.11;39.94;99338.19;1742300;82;21095;-69
2021/07/16 08:09:45;;;;;;;10.35;8.53;;;;;;;34.07;41.14;99335.45;1753020;82;21544;-69
2021/07/16 08:12:12;;;;;;;13.58;8.28;;;;;;;34.29;40.44;99335.75;1752845;82;21070;-68
2021/07/16 08:14:40;;;;;;;9.75;8.23;;;;;;;34.50;40.21;99335.22;1752718;82;21082;-68
2021/07/16 08:17:08;;;;;;;10.48;7.90;;;;;;;34.53;39.76;99337.16;1752769;82;21581;-69
2021/07/16 08:19:36;;;;;;;13.30;8.85;;;;;;;34.52;39.47;99335.56;1752929;82;21071;-69
2021/07/16 08:22:04;;;;;;;13.58;9.28;;;;;;;34.47;39.10;99332.64;1753055;82;21047;-69
2021/07/16 08:24:30;;;;;;;14.10;8.20;;;;;;;34.41;39.07;99330.18;1752979;82;21010;-68
2021/07/16 08:26:56;;;;;;;12.10;8.95;;;;;;;34.51;39.38;99333.19;1753055;82;21042;-68
2021/07/16 08:29:23;;;;;;;12.35;8.75;;;;;;;34.30;38.96;99329.65;1753109;82;21014;-68
2021/07/16 08:31:49;;;;;;;11.25;8.70;;;;;;;34.13;40.02;99330.88;1753133;82;21445;-68
2021/07/16 08:34:16;;;;;;;14.03;9.23;;;;;;;33.93;40.73;99338.61;1752942;82;21514;-69
2021/07/16 08:36:43;;;;;;;14.28;9.70;;;;;;;33.71;41.73;99337.49;1753051;81;21035;-69
2021/07/16 08:39:10;;;;;;;13.13;9.10;;;;;;;33.54;42.04;99343.68;1753002;82;21083;-69
2021/07/16 08:41:36;;;;;;;15.00;10.10;;;;;;;33.39;41.49;99336.74;1752903;82;21071;-69
2021/07/16 08:44:04;;;;;;;11.83;9.53;;;;;;;33.32;41.79;99336.28;1753215;82;21042;-69
2021/07/16 08:46:30;;;;;;;17.42;9.73;;;;;;;33.40;42.37;99332.70;1752853;82;21043;-68
2021/07/16 08:48:58;;;;;;;13.70;9.35;;;;;;;33.64;41.82;99331.39;1752983;82;21082;-69
2021/07/16 08:51:24;;;;;;;13.55;9.95;;;;;;;33.98;41.88;99326.16;1752929;82;21165;-68
2021/07/16 08:53:54;;;;;;;14.10;10.18;;;;;;;34.26;40.98;99326.11;1747866;81;21083;-68
2021/07/16 08:56:22;;;;;;;13.55;9.93;;;;;;;34.36;41.03;99334.97;1739727;82;21542;-69
2021/07/16 08:58:50;;;;;;;13.98;9.98;;;;;;;34.50;39.48;99332.39;1739715;82;21016;-68
2021/07/16 09:01:17;;;;;;;13.30;9.90;;;;;;;34.67;41.16;99328.95;1739746;82;21107;-68
2021/07/16 09:04:00;;;;;;;13.58;10.20;;;;;;;34.91;40.79;99325.45;1739802;82;21067;-68
2021/07/16 09:06:55;;;;;;;13.48;9.90;;;;;;;35.21;39.70;99325.66;1739086;82;21487;-67
2021/07/16 09:09:26;;;;;;;13.62;10.82;;;;;;;35.31;39.68;99325.17;1739394;82;21011;-68
2021/07/16 09:11:55;;;;;;;12.03;10.03;;;;;;;35.23;39.27;99322.37;1738598;82;21138;-68
2021/07/16 09:14:30;;;;;;;12.65;10.30;;;;;;;35.04;38.65;99317.65;1739118;82;21027;-68
2021/07/16 09:17:01;;;;;;;12.78;10.68;;;;;;;34.75;40.29;99319.84;1739155;82;21115;-68
2021/07/16 09:19:43;;;;;;;13.70;9.83;;;;;;;34.68;39.67;99323.48;1739162;82;21028;-68
2021/07/16 09:22:21;;;;;;;13.93;9.95;;;;;;;34.88;39.28;99322.11;1739428;82;21103;-69
2021/07/16 09:25:00;;;;;;;12.10;9.78;;;;;;;35.25;38.52;99319.25;1739174;82;21031;-67
2021/07/16 09:27:41;;;;;;;12.18;9.85;;;;;;;35.24;38.00;99318.30;1739402;82;20992;-67
2021/07/16 09:30:25;;;;;;;11.08;9.68;;;;;;;35.10;37.90;99321.52;1739206;82;21054;-68
2021/07/16 09:32:53;;;;;;;13.03;9.33;;;;;;;34.77;37.96;99323.63;1739436;82;20983;-68
2021/07/16 09:35:33;;;;;;;11.97;8.35;;;;;;;34.57;39.12;99330.00;1739109;82;21016;-69
2021/07/16 09:38:08;;;;;;;10.85;9.13;;;;;;;34.41;40.14;99323.11;1739450;82;21382;-68
2021/07/16 09:40:46;;;;;;;10.15;9.05;;;;;;;34.55;39.96;99316.91;1739416;82;21086;-68
2021/07/16 09:43:16;;;;;;;12.40;9.43;;;;;;;34.73;39.54;99318.06;1739203;82;21020;-69
2021/07/16 09:46:03;;;;;;;16.17;10.23;;;;;;;34.90;40.08;99320.23;1739190;82;21044;-68
2021/07/16 09:48:38;;;;;;;11.65;9.78;;;;;;;34.95;40.32;99320.50;1739276;82;21074;-68
2021/07/16 09:51:14;;;;;;;12.35;9.95;;;;;;;34.98;39.54;99318.80;1739406;82;21106;-69
2021/07/16 09:53:50;;;;;;;15.05;11.03;;;;;;;34.81;39.55;99319.47;1741518;81;21605;-68
2021/07/16 09:56:22;;;;;;;;;;;;;;;34.65;40.07;99320.91;1755854;82;21105;-70
2021/07/16 09:58:51;;;;;;;20.08;11.70;;;;;;;34.72;40.41;99315.05;1753065;82;20127;-69
2021/07/16 10:01:19;;;;;;;12.33;10.05;;;;;;;34.71;39.64;99315.52;1752014;82;21059;-69
2021/07/16 10:03:45;;;;;;;13.22;10.60;;;;;;;34.75;39.03;99322.67;1753124;82;21059;-69
2021/07/16 10:06:14;;;;;;;12.60;10.25;;;;;;;34.89;38.18;99318.66;1753126;82;21062;-69
2021/07/16 10:08:41;;;;;;;12.93;10.45;;;;;;;34.81;38.57;99321.50;1753319;82;21073;-69
2021/07/16 10:11:09;;;;;;;11.63;10.15;;;;;;;34.68;40.27;99320.04;1753200;82;21067;-69
2021/07/16 10:13:37;;;;;;;12.03;10.82;;;;;;;34.45;41.19;99318.17;1752963;82;21548;-69
2021/07/16 10:16:05;;;;;;;15.90;10.25;;;;;;;34.16;40.76;99317.90;1753113;82;21628;-69
2021/07/16 10:18:33;;;;;;;12.53;10.80;;;;;;;33.90;40.76;99314.08;1753040;82;21022;-69
2021/07/16 10:21:01;;;;;;;15.43;10.78;;;;;;;33.87;40.81;99307.91;1753201;82;21861;-69
2021/07/16 10:23:28;;;;;;;16.20;10.20;;;;;;;34.05;40.57;99308.89;1753246;82;21027;-69
2021/07/16 10:25:54;;;;;;;11.05;9.90;;;;;;;34.31;40.74;99308.64;1753524;82;21573;-69
2021/07/16 10:28:42;;;;;;;11.00;9.83;;;;;;;34.45;39.80;99309.70;1753184;82;21050;-69
2021/07/16 10:31:33;;;;;;;15.18;9.88;;;;;;;34.55;39.06;99304.99;1753269;82;21545;-68
2021/07/16 10:34:19;;;;;;;13.68;10.20;;;;;;;34.63;39.66;99309.88;1753288;82;21027;-69
2021/07/16 10:36:49;;;;;;;16.37;10.10;;;;;;;34.72;38.74;99305.81;1753222;82;21494;-69
2021/07/16 10:39:38;;;;;;;9.65;8.68;;;;;;;34.91;38.89;99304.86;1753076;82;21078;-69
2021/07/16 10:42:34;;;;;;;11.33;9.65;;;;;;;35.15;38.47;99306.83;1752810;82;21025;-68
2021/07/16 10:45:04;;;;;;;13.18;10.50;;;;;;;35.03;38.97;99304.73;1753192;82;21030;-69
2021/07/16 10:47:37;;;;;;;12.75;10.25;;;;;;;34.66;39.83;99297.06;1753604;82;20975;-69
2021/07/16 10:50:11;;;;;;;14.50;10.60;;;;;;;34.44;40.08;99292.55;1753133;82;21042;-68
2021/07/16 10:52:49;;;;;;;15.88;10.38;;;;;;;34.30;41.29;99288.69;1753435;82;20995;-68
2021/07/16 10:55:18;;;;;;;12.50;10.15;;;;;;;34.32;39.76;99286.23;1721408;82;21039;-69
2021/07/16 10:57:48;;;;;;;13.58;9.60;;;;;;;34.36;39.39;99286.13;1749514;82;21494;-69
2021/07/16 11:00:40;;;;;;;11.57;9.95;;;;;;;34.61;41.50;99283.45;1749268;82;21047;-69
2021/07/16 11:03:09;;;;;;;13.58;10.08;;;;;;;34.86;39.84;99279.33;1749574;82;21035;-69
2021/07/16 11:05:42;;;;;;;13.70;9.63;;;;;;;34.77;39.47;99279.19;1749279;82;21609;-68
2021/07/16 11:08:40;;;;;;;12.98;10.08;;;;;;;34.68;40.45;99274.81;1749478;82;20996;-69
2021/07/16 11:11:36;;;;;;;12.58;10.40;;;;;;;34.71;39.42;99275.33;1749283;82;21430;-69
2021/07/16 11:14:03;;;;;;;12.90;10.82;;;;;;;34.78;40.11;99277.95;1749511;82;21059;-69
2021/07/16 11:16:39;;;;;;;13.22;10.58;;;;;;;34.72;40.44;99273.30;1749380;82;21023;-69
2021/07/16 11:19:11;;;;;;;14.13;9.28;;;;;;;34.64;40.85;99269.87;1749481;82;21062;-69
2021/07/16 11:21:49;;;;;;;15.50;10.45;;;;;;;34.43;40.43;99279.69;1748966;82;21633;-68
2021/07/16 11:24:32;;;;;;;14.87;10.35;;;;;;;34.21;40.68;99270.78;1749645;82;21022;-69
2021/07/16 11:27:17;;;;;;;17.70;11.57;;;;;;;34.05;40.90;99268.71;1749005;82;21075;-69
2021/07/16 11:29:49;;;;;;;12.47;10.40;;;;;;;34.10;42.30;99273.05;1749485;82;21003;-68
2021/07/16 11:32:27;;;;;;;13.90;11.28;;;;;;;34.29;41.23;99260.28;1749206;82;21585;-67
2021/07/16 11:35:00;;;;;;;16.27;10.60;;;;;;;34.59;39.69;99259.06;1749382;82;21074;-68
2021/07/16 11:37:48;;;;;;;11.33;9.83;;;;;;;34.72;39.85;99263.41;1749227;82;21015;-68